Time;durP1;ratioP1;P1;durP2;ratioP2;P2;SDS_P1;SDS_P2;PMS_P1;PMS_P2;Temp;Humidity;BMP_temperature;BMP_pressure;BME280_temperature;BME280_humidity;BME280_pressure;Samples;Min_cycle;Max_cycle;Signal;HPM_P1;HPM_P2
2021/05/14 00:00:35;;;;;;;3.50;2.20;;;;;;;14.17;60.58;97383.28;125428;1107;103113;-72
2021/05/14 00:03:18;;;;;;;3.85;2.00;;;;;;;14.16;60.41;97382.42;125429;1100;102995;-72
2021/05/14 00:05:47;;;;;;;7.17;1.73;;;;;;;14.15;60.67;97386.11;125336;1107;103090;-71
2021/05/14 00:08:19;;;;;;;2.10;1.57;;;;;;;14.15;60.50;97386.11;125433;1107;103028;-71
2021/05/14 00:10:47;;;;;;;3.10;1.77;;;;;;;14.17;60.51;97380.60;125425;1107;102997;-72
2021/05/14 00:13:16;;;;;;;2.63;2.03;;;;;;;14.17;60.42;97384.09;125359;1107;104495;-71
2021/05/14 00:15:44;;;;;;;4.67;1.93;;;;;;;14.17;60.57;97389.44;125162;1107;103102;-73
2021/05/14 00:18:13;;;;;;;2.60;1.60;;;;;;;14.17;60.88;97385.95;125258;1107;103065;-71
2021/05/14 00:20:42;;;;;;;3.00;1.70;;;;;;;14.16;60.53;97382.42;125232;1107;103097;-71
2021/05/14 00:23:13;;;;;;;1.90;1.13;;;;;;;14.16;61.05;97385.09;125278;1107;103025;-71
2021/05/14 00:25:42;;;;;;;1.40;1.30;;;;;;;14.16;60.82;97382.42;125247;1107;103553;-72
2021/05/14 00:28:11;;;;;;;1.37;1.27;;;;;;;14.16;60.64;97379.75;125253;1107;103535;-72
2021/05/14 00:30:39;;;;;;;2.30;1.57;;;;;;;14.16;60.78;97370.91;125439;1107;103091;-72
2021/05/14 00:33:08;;;;;;;1.33;1.20;;;;;;;14.14;61.05;97376.42;125443;1107;103171;-73
2021/05/14 00:35:36;;;;;;;1.60;1.50;;;;;;;14.13;60.69;97380.10;125482;1107;102972;-72
2021/05/14 00:38:05;;;;;;;2.33;1.77;;;;;;;14.12;60.91;97381.95;125440;1100;103204;-71
2021/05/14 00:40:33;;;;;;;2.00;1.67;;;;;;;14.13;60.95;97382.78;125434;1107;103014;-71
2021/05/14 00:43:01;;;;;;;2.07;1.40;;;;;;;14.11;60.61;97382.12;125455;1107;103100;-70
2021/05/14 00:45:30;;;;;;;2.50;1.57;;;;;;;14.11;60.86;97379.44;125448;1100;102995;-70
2021/05/14 00:47:58;;;;;;;1.47;1.37;;;;;;;14.09;60.89;97389.48;125426;1100;103020;-72
2021/05/14 00:50:26;;;;;;;1.60;1.50;;;;;;;14.07;60.66;97389.67;125389;1107;103220;-70
2021/05/14 00:52:55;;;;;;;1.73;1.63;;;;;;;14.06;60.87;97396.02;125393;1100;103061;-71
2021/05/14 00:55:23;;;;;;;2.03;1.83;;;;;;;14.01;60.94;97387.69;125383;1100;102996;-71
2021/05/14 00:57:51;;;;;;;3.00;1.70;;;;;;;13.97;60.81;97392.56;125426;1100;103113;-70
2021/05/14 01:00:20;;;;;;;2.73;2.20;;;;;;;13.94;60.97;97387.56;125455;1100;102996;-71
2021/05/14 01:02:51;;;;;;;3.27;1.77;;;;;;;13.89;60.86;97392.59;125436;1107;103090;-71
2021/05/14 01:05:28;;;;;;;3.43;1.67;;;;;;;13.86;61.30;97394.80;125384;1107;103118;-69
2021/05/14 01:07:56;;;;;;;2.77;2.20;;;;;;;13.79;61.16;97394.64;125422;1107;103498;-70
2021/05/14 01:10:25;;;;;;;2.27;1.87;;;;;;;13.71;61.21;97392.84;125427;1100;103003;-71
2021/05/14 01:12:54;;;;;;;3.27;2.10;;;;;;;13.67;61.08;97386.99;125427;1100;102999;-70
2021/05/14 01:15:26;;;;;;;3.33;2.18;;;;;;;13.64;61.34;97394.53;125411;1107;103109;-69
2021/05/14 01:17:54;;;;;;;2.77;2.30;;;;;;;13.59;61.54;97387.05;125404;1107;102991;-71
2021/05/14 01:20:31;;;;;;;3.67;2.07;;;;;;;13.59;61.53;97380.86;125487;1100;103125;-72
2021/05/14 01:22:59;;;;;;;2.43;2.23;;;;;;;13.55;61.23;97380.38;125425;1107;103032;-72
2021/05/14 01:25:28;;;;;;;3.20;2.60;;;;;;;13.49;61.60;97386.41;125435;1107;103001;-71
2021/05/14 01:27:56;;;;;;;3.17;2.50;;;;;;;13.46;61.65;97384.08;125442;1107;103109;-70
2021/05/14 01:30:24;;;;;;;3.07;2.40;;;;;;;13.43;61.66;97384.42;125423;1100;103183;-71
2021/05/14 01:32:53;;;;;;;3.60;2.90;;;;;;;13.40;61.55;97386.39;125424;1100;103139;-71
2021/05/14 01:35:21;;;;;;;3.40;2.67;;;;;;;13.37;61.80;97380.57;125441;1100;103169;-72
2021/05/14 01:37:49;;;;;;;5.87;3.00;;;;;;;13.38;62.01;97388.40;125469;1107;103003;-71
2021/05/14 01:40:17;;;;;;;6.13;2.57;;;;;;;13.41;61.95;97376.59;125405;1100;103256;-71
2021/05/14 01:42:50;;;;;;;4.27;2.63;;;;;;;13.40;62.13;97375.71;125432;1107;103158;-71
2021/05/14 01:45:18;;;;;;;3.17;2.70;;;;;;;13.38;62.13;97372.38;125408;1107;103078;-71
2021/05/14 01:47:47;;;;;;;3.03;2.70;;;;;;;13.43;62.20;97371.06;125451;1099;103002;-70
2021/05/14 01:50:19;;;;;;;5.83;2.53;;;;;;;13.45;62.35;97372.55;125388;1107;103085;-70
2021/05/14 01:52:51;;;;;;;3.87;2.73;;;;;;;13.50;62.41;97372.86;125393;1107;103056;-70
2021/05/14 01:55:20;;;;;;;4.90;2.70;;;;;;;13.52;62.36;97375.38;125368;1107;103211;-72
2021/05/14 01:57:52;;;;;;;4.80;2.93;;;;;;;13.53;62.32;97372.52;125429;1107;103019;-73
2021/05/14 02:00:23;;;;;;;4.77;2.60;;;;;;;13.53;62.30;97369.85;125372;1100;102997;-72
2021/05/14 02:02:51;;;;;;;5.03;2.80;;;;;;;13.52;62.19;97365.52;125441;1107;103017;-72
2021/05/14 02:05:24;;;;;;;4.00;3.03;;;;;;;13.52;62.36;97372.71;125458;1107;103062;-73
2021/05/14 02:07:56;;;;;;;3.20;2.90;;;;;;;13.50;62.23;97372.05;125351;1107;103133;-72
2021/05/14 02:10:25;;;;;;;4.15;3.10;;;;;;;13.46;62.28;97376.88;125461;1107;103003;-72
2021/05/14 02:12:53;;;;;;;3.73;2.93;;;;;;;13.46;62.34;97373.39;125451;1100;103242;-73
2021/05/14 02:15:25;;;;;;;3.70;2.87;;;;;;;13.46;62.35;97379.55;125430;1100;102997;-73
2021/05/14 02:17:54;;;;;;;5.10;3.37;;;;;;;13.48;62.51;97377.55;125424;1107;103135;-73
2021/05/14 02:20:22;;;;;;;3.40;2.90;;;;;;;13.47;62.46;97375.88;125408;1107;103161;-72
2021/05/14 02:22:50;;;;;;;6.83;2.93;;;;;;;13.48;62.33;97385.56;125432;1107;102997;-71
2021/05/14 02:25:19;;;;;;;6.33;3.03;;;;;;;13.46;62.44;97376.06;125434;1107;103097;-70
2021/05/14 02:27:51;;;;;;;3.83;3.10;;;;;;;13.46;62.54;97379.55;125424;1100;103061;-72
2021/05/14 02:30:23;;;;;;;5.00;3.07;;;;;;;13.42;62.22;97380.92;125425;1107;103140;-71
2021/05/14 02:32:52;;;;;;;4.33;2.90;;;;;;;13.39;62.49;97386.58;125416;1107;103103;-71
2021/05/14 02:35:20;;;;;;;4.20;2.80;;;;;;;13.36;62.77;97381.58;125458;1100;102992;-71
2021/05/14 02:37:52;;;;;;;5.77;3.30;;;;;;;13.34;62.69;97388.92;125428;1107;103161;-73
2021/05/14 02:40:21;;;;;;;4.30;3.00;;;;;;;13.33;62.69;97379.25;125467;1107;103124;-72
2021/05/14 02:42:49;;;;;;;4.70;3.00;;;;;;;13.33;62.78;97389.92;125412;1107;103049;-72
2021/05/14 02:45:22;;;;;;;4.63;3.40;;;;;;;13.33;62.80;97387.25;125386;1100;103054;-73
2021/05/14 02:47:50;;;;;;;5.23;3.65;;;;;;;13.34;62.69;97387.07;125438;1107;103097;-74
2021/05/14 02:50:23;;;;;;;3.30;2.67;;;;;;;13.34;62.98;97381.73;125425;1107;103101;-70
2021/05/14 02:52:55;;;;;;;5.20;3.37;;;;;;;13.31;62.80;97389.27;125427;1107;103434;-72
2021/05/14 02:55:23;;;;;;;5.13;3.30;;;;;;;13.28;62.76;97394.94;125418;1100;103099;-72
2021/05/14 02:57:53;;;;;;;4.97;3.30;;;;;;;13.27;62.83;97391.42;125429;1107;103174;-71
2021/05/14 03:00:25;;;;;;;4.03;3.40;;;;;;;13.24;63.00;97392.61;125424;1107;103120;-72
2021/05/14 03:02:53;;;;;;;5.20;3.30;;;;;;;13.24;62.90;97395.28;125443;1100;103003;-71
2021/05/14 03:05:25;;;;;;;9.40;3.63;;;;;;;13.24;62.95;97403.28;125405;1107;103075;-70
2021/05/14 03:07:54;;;;;;;8.50;3.40;;;;;;;13.25;63.18;97404.11;125394;1100;103118;-71
2021/05/14 03:10:25;;;;;;;4.17;3.47;;;;;;;13.23;63.10;97390.94;125528;1100;103069;-71
2021/05/14 03:12:53;;;;;;;5.67;3.40;;;;;;;13.23;63.25;97403.47;125414;1107;103094;-69
2021/05/14 03:15:22;;;;;;;4.00;3.40;;;;;;;13.24;63.06;97397.13;125430;1105;103072;-71
2021/05/14 03:17:50;;;;;;;4.07;3.43;;;;;;;13.25;63.21;97412.11;125547;1104;103088;-71
2021/05/14 03:20:27;;;;;;;4.50;3.53;;;;;;;13.27;63.27;97411.96;125366;1107;102995;-71
2021/05/14 03:22:56;;;;;;;5.20;3.33;;;;;;;13.25;63.28;97409.45;125401;1107;102999;-70
2021/05/14 03:25:24;;;;;;;6.83;3.40;;;;;;;13.28;63.32;97418.97;125439;1100;103171;-71
2021/05/14 03:27:53;;;;;;;5.40;3.80;;;;;;;13.29;63.35;97423.30;125521;1098;102997;-71
2021/05/14 03:30:21;;;;;;;5.40;3.73;;;;;;;13.30;63.58;97419.63;125429;1107;103026;-72
2021/05/14 03:32:49;;;;;;;5.63;3.70;;;;;;;13.31;63.36;97421.30;125573;1104;103190;-73
2021/05/14 03:35:25;;;;;;;6.30;3.70;;;;;;;13.32;63.54;97421.12;125436;1107;103094;-73
2021/05/14 03:37:53;;;;;;;5.17;3.80;;;;;;;13.33;63.61;97421.97;125419;1100;103085;-72
2021/05/14 03:43:01;;;;;;;6.63;3.97;;;;;;;13.33;63.55;97428.13;125450;1107;103026;-71
2021/05/14 03:45:31;;;;;;;6.63;4.00;;;;;;;13.33;63.49;97424.64;125485;1104;103017;-71
2021/05/14 03:48:00;;;;;;;5.77;3.80;;;;;;;13.34;63.86;97428.98;125356;1107;103156;-71
2021/05/14 03:50:31;;;;;;;4.90;3.60;;;;;;;13.35;63.60;97428.80;125426;1104;102919;-72
2021/05/14 03:53:03;;;;;;;7.30;4.03;;;;;;;13.36;63.75;97434.98;125282;1105;103072;-71
2021/05/14 03:55:32;;;;;;;5.60;3.53;;;;;;;13.39;63.83;97434.65;125542;1100;102995;-72
2021/05/14 03:58:00;;;;;;;8.07;4.50;;;;;;;13.42;63.59;97430.82;125429;1100;103147;-72
2021/05/14 04:00:28;;;;;;;3.97;3.03;;;;;;;13.44;64.08;97436.83;125524;1104;103147;-73
2021/05/14 04:02:57;;;;;;;6.73;4.60;;;;;;;13.43;63.73;97430.67;126004;1104;103020;-73
2021/05/14 04:05:26;;;;;;;6.63;4.37;;;;;;;13.44;63.97;97426.99;125374;1107;102997;-71
2021/05/14 04:07:58;;;;;;;6.60;4.00;;;;;;;13.47;63.94;97436.48;126041;1099;103016;-72
2021/05/14 04:15:56;;;;;;;9.60;4.67;;;;;;;13.50;64.08;97436.16;125405;1105;102982;-72
2021/05/14 04:18:24;;;;;;;8.20;4.78;;;;;;;13.50;63.96;97441.49;125362;1107;103071;-72
2021/05/14 04:20:53;;;;;;;7.87;4.97;;;;;;;13.47;63.97;97431.15;125386;1100;103082;-78
2021/05/14 04:23:21;;;;;;;11.60;5.60;;;;;;;13.46;63.87;97440.98;125468;1100;103156;-74
2021/05/14 04:25:50;;;;;;;10.07;4.13;;;;;;;13.45;64.46;97441.98;125408;1104;103113;-72
2021/05/14 04:28:23;;;;;;;7.93;5.00;;;;;;;13.39;64.24;97446.14;125571;1104;103003;-74
2021/05/14 04:30:51;;;;;;;8.73;4.63;;;;;;;13.38;64.23;97440.98;125419;1104;103130;-73
2021/05/14 04:33:20;;;;;;;9.07;4.80;;;;;;;13.36;64.22;97448.34;125492;1104;103120;-73
2021/05/14 04:35:49;;;;;;;11.20;5.50;;;;;;;13.34;64.44;97450.34;125486;1104;103131;-74
2021/05/14 04:38:18;;;;;;;10.33;5.10;;;;;;;13.28;64.42;97445.67;125326;1105;103225;-73
2021/05/14 04:40:46;;;;;;;7.73;4.97;;;;;;;13.24;64.52;97450.53;125541;1104;103502;-73
2021/05/14 04:43:15;;;;;;;8.75;5.10;;;;;;;13.23;64.22;97451.53;125353;1107;103161;-74
2021/05/14 04:45:44;;;;;;;10.63;5.87;;;;;;;13.20;64.54;97446.52;125538;1104;103066;-74
2021/05/14 04:48:12;;;;;;;9.35;5.30;;;;;;;13.17;64.27;97450.34;125543;1104;103160;-74
2021/05/14 04:50:41;;;;;;;7.87;4.90;;;;;;;13.17;64.45;97450.34;125379;1107;102994;-72
2021/05/14 04:53:12;;;;;;;6.77;4.47;;;;;;;13.16;64.58;97453.20;125229;1100;103129;-72
2021/05/14 04:55:47;;;;;;;11.27;5.97;;;;;;;13.16;64.78;97453.20;125316;1107;102995;-75
2021/05/14 04:58:16;;;;;;;8.23;5.07;;;;;;;13.15;64.64;97449.67;125345;1107;103201;-73
2021/05/14 05:00:44;;;;;;;10.43;5.23;;;;;;;13.20;64.73;97459.88;125421;1107;103131;-74
2021/05/14 05:03:12;;;;;;;9.87;5.23;;;;;;;13.21;64.77;97461.54;125274;1100;103068;-74
2021/05/14 05:05:41;;;;;;;7.70;4.80;;;;;;;13.22;64.80;97457.88;125441;1100;103096;-74
2021/05/14 05:08:11;;;;;;;8.53;5.40;;;;;;;13.25;64.91;97455.69;125417;1107;103470;-75
2021/05/14 05:10:39;;;;;;;9.93;5.57;;;;;;;13.29;64.80;97458.02;125494;1104;103000;-74
2021/05/14 05:13:08;;;;;;;11.63;5.67;;;;;;;13.29;64.86;97464.18;125282;1105;103072;-75
2021/05/14 05:15:36;;;;;;;11.45;5.80;;;;;;;13.30;64.95;97467.70;125500;1104;103069;-75
2021/05/14 05:18:05;;;;;;;8.23;5.10;;;;;;;13.31;64.85;97464.84;125496;1100;103022;-76
2021/05/14 05:20:33;;;;;;;11.30;6.17;;;;;;;13.33;65.01;97467.36;125308;1107;103000;-75
2021/05/14 05:23:02;;;;;;;9.37;5.37;;;;;;;13.36;64.92;97467.03;125510;1100;103452;-74
2021/05/14 05:25:30;;;;;;;11.40;5.60;;;;;;;13.37;64.94;97464.17;125409;1100;103109;-76
2021/05/14 05:28:03;;;;;;;10.57;5.50;;;;;;;13.38;64.88;97473.86;125421;1104;103097;-74
2021/05/14 05:30:32;;;;;;;10.90;5.60;;;;;;;13.40;64.92;97469.18;125445;1107;103026;-74
2021/05/14 05:33:02;;;;;;;8.65;5.10;;;;;;;13.42;65.05;97462.87;125534;1104;103093;-74
2021/05/14 05:35:30;;;;;;;8.87;5.27;;;;;;;13.43;64.87;97469.88;125558;1104;103096;-74
2021/05/14 05:37:58;;;;;;;8.37;5.37;;;;;;;13.45;65.07;97475.89;125584;1100;103216;-73
2021/05/14 05:40:27;;;;;;;9.30;5.07;;;;;;;13.47;64.88;97471.21;125524;1100;103179;-74
2021/05/14 05:42:55;;;;;;;11.55;5.55;;;;;;;13.50;65.30;97476.22;125403;1107;103106;-74
2021/05/14 05:45:23;;;;;;;9.40;4.87;;;;;;;13.53;65.08;97484.71;125473;1104;103000;-74
2021/05/14 05:47:52;;;;;;;16.77;7.13;;;;;;;13.52;64.80;97483.05;125644;1104;103118;-75
2021/05/14 05:50:20;;;;;;;11.43;6.20;;;;;;;13.51;65.12;97491.23;125411;1107;103442;-75
2021/05/14 05:52:53;;;;;;;13.20;6.30;;;;;;;13.52;65.04;97492.91;125323;1107;103026;-73
2021/05/14 05:55:24;;;;;;;;;;;;;;;13.54;65.59;97490.91;125548;1104;103660;-74
2021/05/14 05:57:53;;;;;;;10.37;5.77;;;;;;;13.55;65.22;97501.41;125532;1104;103121;-74
2021/05/14 06:00:24;;;;;;;10.93;5.33;;;;;;;13.55;65.07;97503.26;125537;1104;103030;-74
2021/05/14 06:02:59;;;;;;;8.77;4.93;;;;;;;13.55;65.31;97503.26;125543;1100;103254;-73
2021/05/14 06:05:27;;;;;;;7.93;4.57;;;;;;;13.58;65.08;97496.73;125546;1104;102992;-73
2021/05/14 06:07:58;;;;;;;9.97;5.13;;;;;;;13.58;65.21;97497.58;125397;1107;103182;-75
2021/05/14 06:10:27;;;;;;;9.90;5.10;;;;;;;13.61;65.18;97496.39;125400;1107;103116;-74
2021/05/14 06:12:56;;;;;;;10.30;4.80;;;;;;;13.65;65.31;97500.39;125542;1100;103088;-75
2021/05/14 06:15:24;;;;;;;8.40;4.40;;;;;;;13.72;65.37;97508.55;125423;1099;104399;-76
2021/05/14 06:17:54;;;;;;;8.77;5.30;;;;;;;13.77;65.30;97509.73;125373;1107;103110;-74
2021/05/14 06:20:28;;;;;;;9.60;5.13;;;;;;;13.84;65.39;97505.38;125562;1104;102851;-74
2021/05/14 06:22:59;;;;;;;9.93;4.63;;;;;;;13.92;65.24;97504.52;125405;1107;103114;-75
2021/05/14 06:25:29;;;;;;;5.43;3.97;;;;;;;14.02;65.64;97511.51;125594;1104;103029;-76
2021/05/14 06:27:58;;;;;;;6.90;4.37;;;;;;;14.10;65.39;97503.44;125423;1108;103125;-77
2021/05/14 06:30:30;;;;;;;7.33;4.70;;;;;;;14.18;65.39;97515.96;125382;1100;103002;-74
2021/05/14 06:33:03;;;;;;;7.97;3.90;;;;;;;14.25;65.53;97527.64;125389;1107;103004;-75
2021/05/14 06:35:33;;;;;;;6.68;4.50;;;;;;;14.29;65.73;97519.08;125548;1104;103155;-75
2021/05/14 06:38:06;;;;;;;6.00;4.13;;;;;;;14.29;65.69;97519.08;125392;1107;102995;-75
2021/05/14 06:40:38;;;;;;;9.17;4.27;;;;;;;14.31;65.69;97518.08;125404;1107;102996;-76
2021/05/14 06:43:06;;;;;;;8.60;4.40;;;;;;;14.31;65.56;97516.22;125466;1099;103227;-77
2021/05/14 06:45:35;;;;;;;6.83;4.60;;;;;;;14.34;65.64;97515.06;125423;1107;103227;-74
2021/05/14 06:48:14;;;;;;;9.10;4.63;;;;;;;14.36;65.79;97521.06;125368;1100;103614;-75
2021/05/14 06:50:43;;;;;;;7.27;4.20;;;;;;;14.43;65.79;97517.52;125394;1107;103132;-75
2021/05/14 06:53:12;;;;;;;6.80;4.50;;;;;;;14.49;65.64;97521.32;125563;1104;103409;-74
2021/05/14 06:55:43;;;;;;;7.60;4.40;;;;;;;14.56;65.63;97529.50;125473;1104;103118;-74
2021/05/14 06:58:11;;;;;;;10.40;4.45;;;;;;;14.60;65.60;97533.50;125563;1104;103003;-75
2021/05/14 07:00:39;;;;;;;6.70;3.83;;;;;;;14.65;65.76;97532.95;125426;1100;103133;-73
2021/05/14 07:03:12;;;;;;;9.10;4.73;;;;;;;14.68;65.73;97528.08;125501;1104;103071;-74
2021/05/14 07:05:40;;;;;;;7.40;4.40;;;;;;;14.74;65.64;97534.63;125373;1100;103212;-74
2021/05/14 07:08:12;;;;;;;6.93;4.70;;;;;;;14.81;65.59;97527.55;125601;1100;103075;-75
2021/05/14 07:10:40;;;;;;;7.85;4.05;;;;;;;14.89;65.29;97529.34;125537;1104;103066;-75
2021/05/14 07:13:09;;;;;;;9.40;4.13;;;;;;;14.93;65.60;97533.33;125435;1099;102997;-74
2021/05/14 07:15:37;;;;;;;6.50;4.20;;;;;;;14.95;65.66;97538.50;125456;1100;103016;-73
2021/05/14 07:18:05;;;;;;;8.33;4.30;;;;;;;14.98;65.79;97530.96;125191;1107;103001;-75
2021/05/14 07:20:36;;;;;;;4.75;3.50;;;;;;;15.04;66.04;97529.41;125357;1104;103099;-73
2021/05/14 07:23:05;;;;;;;6.13;4.07;;;;;;;15.07;65.63;97530.91;125446;1104;103029;-74
2021/05/14 07:25:33;;;;;;;6.87;3.90;;;;;;;15.13;65.83;97527.49;125361;1100;102972;-73
2021/05/14 07:28:03;;;;;;;5.43;3.47;;;;;;;15.21;65.87;97540.83;125575;1104;103098;-75
2021/05/14 07:30:32;;;;;;;7.80;3.77;;;;;;;15.29;65.78;97540.77;125391;1107;103122;-75
2021/05/14 07:33:01;;;;;;;3.43;3.03;;;;;;;15.37;65.59;97541.72;125512;1100;103020;-77
2021/05/14 07:35:30;;;;;;;7.03;3.50;;;;;;;15.41;65.63;97538.49;125500;1104;103093;-77
2021/05/14 07:38:11;;;;;;;7.20;3.80;;;;;;;15.48;65.64;97550.16;125404;1107;103030;-74
2021/05/14 07:40:40;;;;;;;4.90;3.53;;;;;;;15.53;65.62;97549.61;125422;1107;103092;-75
2021/05/14 07:43:08;;;;;;;4.03;3.40;;;;;;;15.52;65.50;97553.30;125396;1104;102984;-75
2021/05/14 07:45:36;;;;;;;5.97;4.10;;;;;;;15.55;65.69;97558.30;125481;1104;103099;-75
2021/05/14 07:48:19;;;;;;;6.00;3.67;;;;;;;15.55;65.73;97557.48;125337;1107;103027;-74
2021/05/14 07:50:51;;;;;;;4.28;3.48;;;;;;;15.52;65.55;97558.66;125352;1100;102994;-74
2021/05/14 07:53:20;;;;;;;4.93;3.10;;;;;;;15.51;65.60;97556.17;125559;1100;103094;-74
2021/05/14 07:55:48;;;;;;;3.53;3.13;;;;;;;15.47;65.64;97561.89;125487;1100;103099;-75
2021/05/14 07:58:17;;;;;;;3.80;3.30;;;;;;;15.43;65.46;97557.91;125526;1104;103165;-73
2021/05/14 08:00:49;;;;;;;3.03;2.63;;;;;;;15.40;65.60;97554.77;125413;1100;103083;-74
2021/05/14 08:03:18;;;;;;;4.20;2.93;;;;;;;15.38;65.51;97567.50;125445;1104;103096;-74
2021/05/14 08:05:47;;;;;;;3.93;2.73;;;;;;;15.36;65.56;97569.53;125520;1104;103133;-75
2021/05/14 08:08:18;;;;;;;5.90;3.10;;;;;;;15.30;65.52;97574.58;125408;1100;103179;-73
2021/05/14 08:10:53;;;;;;;4.13;2.80;;;;;;;15.30;65.41;97573.73;125334;1100;103097;-75
2021/05/14 08:13:26;;;;;;;5.27;3.27;;;;;;;15.26;65.61;97573.27;125504;1104;103090;-74
2021/05/14 08:15:54;;;;;;;4.07;3.27;;;;;;;15.30;65.59;97571.05;125410;1104;103101;-74
2021/05/14 08:18:23;;;;;;;6.07;3.07;;;;;;;15.39;65.61;97572.67;125408;1100;103101;-74
2021/05/14 08:20:56;;;;;;;4.58;3.10;;;;;;;15.45;65.69;97558.55;125495;1104;103035;-74
2021/05/14 08:23:25;;;;;;;3.77;2.80;;;;;;;15.53;65.64;97565.69;125490;1099;103071;-75
2021/05/14 08:25:53;;;;;;;5.63;2.97;;;;;;;15.64;65.70;97572.48;125414;1108;103103;-77
2021/05/14 08:28:21;;;;;;;4.67;3.17;;;;;;;15.78;65.58;97570.84;125346;1107;103021;-74
2021/05/14 08:30:49;;;;;;;4.13;2.63;;;;;;;15.88;65.50;97568.78;125399;1107;103128;-75
2021/05/14 08:33:18;;;;;;;4.70;2.77;;;;;;;15.91;65.58;97565.70;125355;1107;103035;-75
2021/05/14 08:35:47;;;;;;;2.70;2.37;;;;;;;15.96;65.65;97578.58;125359;1107;103072;-75
2021/05/14 08:38:16;;;;;;;3.20;2.70;;;;;;;15.95;65.61;97576.91;125525;1104;103096;-76
2021/05/14 08:40:44;;;;;;;4.57;2.83;;;;;;;15.92;65.63;97585.32;125516;1100;103093;-75
2021/05/14 08:43:16;;;;;;;4.07;2.90;;;;;;;15.89;65.54;97577.64;125430;1100;103049;-75
2021/05/14 08:45:45;;;;;;;6.03;2.90;;;;;;;15.89;65.67;97580.32;125549;1104;103733;-75
2021/05/14 08:48:15;;;;;;;4.03;2.93;;;;;;;15.88;65.64;97584.02;125375;1106;103222;-75
2021/05/14 08:50:45;;;;;;;4.37;2.70;;;;;;;15.90;65.37;97590.84;125358;1099;103024;-75
2021/05/14 08:53:40;;;;;;;5.40;2.80;;;;;;;15.90;65.59;97587.34;125572;1104;103024;-74
2021/05/14 08:56:09;;;;;;;4.33;2.30;;;;;;;15.90;65.49;97588.17;125597;1099;103003;-74
2021/05/14 08:58:40;;;;;;;3.07;2.27;;;;;;;15.92;65.56;97585.32;125473;1100;103024;-75
2021/05/14 09:01:10;;;;;;;2.63;2.43;;;;;;;15.91;65.61;97597.06;125364;1107;103049;-75
2021/05/14 09:03:57;;;;;;;5.70;2.87;;;;;;;15.89;65.61;97601.77;125360;1100;102993;-74
2021/05/14 09:06:28;;;;;;;2.77;2.30;;;;;;;15.82;65.47;97604.33;125426;1107;103064;-75
2021/05/14 09:09:04;;;;;;;4.87;2.47;;;;;;;15.77;65.48;97606.71;125380;1107;103171;-75
2021/05/14 09:11:34;;;;;;;4.43;2.67;;;;;;;15.73;65.48;97608.90;125387;1107;102995;-70
2021/05/14 09:14:05;;;;;;;4.07;2.40;;;;;;;15.75;65.30;97614.91;125380;1105;103187;-71
2021/05/14 09:16:43;;;;;;;4.77;2.30;;;;;;;15.76;65.46;97613.91;126106;1104;103103;-68
2021/05/14 09:19:30;;;;;;;2.77;2.43;;;;;;;15.78;65.57;97608.38;125288;1107;103094;-68
2021/05/14 09:22:20;;;;;;;4.57;2.53;;;;;;;15.87;65.55;97607.33;125283;1100;103084;-75
2021/05/14 09:25:01;;;;;;;11.50;3.50;;;;;;;15.97;65.47;97614.26;125349;1107;103100;-75
2021/05/14 09:27:38;;;;;;;5.33;2.57;;;;;;;15.98;65.34;97607.88;125368;1105;102829;-74
2021/05/14 09:30:10;;;;;;;5.53;2.87;;;;;;;15.94;65.34;97612.78;125394;1108;103147;-75
2021/05/14 09:32:39;;;;;;;4.43;2.65;;;;;;;15.87;65.39;97611.84;125336;1105;103088;-74
2021/05/14 09:35:09;;;;;;;3.57;2.30;;;;;;;15.80;65.34;97605.50;125343;1107;103153;-74
2021/05/14 09:37:55;;;;;;;3.53;2.43;;;;;;;15.74;65.34;97612.43;125381;1100;103071;-75
2021/05/14 09:40:25;;;;;;;6.40;2.40;;;;;;;15.74;65.55;97607.89;125332;1107;102992;-74
2021/05/14 09:43:01;;;;;;;4.77;2.30;;;;;;;15.75;65.57;97609.55;125365;1108;103000;-75
2021/05/14 09:45:30;;;;;;;3.53;2.13;;;;;;;15.80;65.52;97616.22;125444;1107;103116;-74
2021/05/14 09:50:58;;;;;;;2.30;2.10;;;;;;;15.92;65.72;97615.63;125392;1107;103666;-76
2021/05/14 09:53:27;;;;;;;6.33;2.67;;;;;;;16.00;65.65;97614.75;125377;1105;103206;-76
2021/05/14 09:56:03;;;;;;;2.90;2.20;;;;;;;16.06;65.63;97616.70;125392;1107;103096;-75
2021/05/14 09:58:34;;;;;;;3.80;2.40;;;;;;;16.09;65.70;97617.35;125382;1108;103096;-75
2021/05/14 10:01:06;;;;;;;2.97;2.10;;;;;;;16.11;65.69;97616.14;125397;1107;103096;-75
2021/05/14 10:03:36;;;;;;;1.57;1.47;;;;;;;16.18;65.71;97618.91;125388;1100;103102;-75
2021/05/14 10:06:06;;;;;;;3.57;1.77;;;;;;;16.24;65.73;97630.78;125563;1104;102819;-77
2021/05/14 10:08:35;;;;;;;3.20;1.70;;;;;;;16.26;65.65;97634.12;125396;1100;103032;-75
2021/05/14 10:11:06;;;;;;;2.63;1.93;;;;;;;16.28;65.57;97638.27;125541;1104;103142;-76
2021/05/14 10:13:37;;;;;;;2.50;1.73;;;;;;;16.31;65.58;97631.69;125566;1100;102997;-75
2021/05/14 10:16:06;;;;;;;1.57;1.47;;;;;;;16.29;65.50;97637.25;125604;1104;102997;-75
2021/05/14 10:18:42;;;;;;;3.45;1.80;;;;;;;16.37;65.76;97628.27;125430;1100;102993;-76
2021/05/14 10:21:13;;;;;;;8.27;4.60;;;;;;;16.48;65.65;97635.88;125386;1105;103109;-76
2021/05/14 10:23:57;;;;;;;5.63;3.20;;;;;;;16.48;65.83;97643.11;125374;1105;103126;-75
2021/05/14 10:26:37;;;;;;;4.20;2.75;;;;;;;16.40;65.65;97643.19;125395;1100;102997;-76
2021/05/14 10:29:14;;;;;;;4.10;2.87;;;;;;;16.26;65.79;97645.66;125538;1104;103081;-76
2021/05/14 10:31:46;;;;;;;7.15;3.40;;;;;;;16.20;65.55;97657.13;125435;1107;103000;-75
2021/05/14 10:34:17;;;;;;;5.17;3.43;;;;;;;16.14;65.73;97655.16;125577;1104;102825;-75
2021/05/14 10:36:47;;;;;;;5.73;3.60;;;;;;;16.02;65.65;97652.09;125574;1104;103005;-75
2021/05/14 10:39:37;;;;;;;6.93;4.30;;;;;;;15.94;65.71;97658.38;125427;1104;103199;-73
2021/05/14 10:42:09;;;;;;;8.00;4.25;;;;;;;15.82;65.34;97668.66;125490;1105;103130;-74
2021/05/14 10:44:44;;;;;;;7.68;4.25;;;;;;;15.70;65.64;97665.55;125449;1104;102996;-75
2021/05/14 10:47:22;;;;;;;9.27;4.40;;;;;;;15.65;65.79;97667.95;125580;1104;103025;-75
2021/05/14 10:50:07;;;;;;;9.00;4.55;;;;;;;15.60;65.85;97671.16;125596;1100;103072;-74
2021/05/14 10:53:17;;;;;;;9.03;4.90;;;;;;;15.57;65.76;97670.69;125496;1107;103183;-75
2021/05/14 10:55:48;;;;;;;9.85;4.65;;;;;;;15.50;65.82;97672.41;125537;1104;103003;-76
2021/05/14 10:58:47;;;;;;;8.50;4.80;;;;;;;15.44;65.82;97673.96;125583;1104;103171;-75
2021/05/14 11:01:42;;;;;;;11.23;5.50;;;;;;;15.41;65.82;97682.35;125594;1100;103029;-75
2021/05/14 11:04:13;;;;;;;12.10;5.77;;;;;;;15.39;65.89;97684.38;125408;1108;103544;-76
2021/05/14 11:06:48;;;;;;;9.93;4.83;;;;;;;15.37;65.92;97679.17;125458;1107;103000;-75
2021/05/14 11:09:22;;;;;;;9.90;5.13;;;;;;;15.38;65.97;97685.38;125337;1108;103002;-75
2021/05/14 11:12:05;;;;;;;11.90;5.97;;;;;;;15.36;66.06;97690.08;125368;1100;103093;-75
2021/05/14 11:14:46;;;;;;;16.97;6.33;;;;;;;15.31;65.99;97691.44;125339;1107;103030;-75
2021/05/14 11:17:18;;;;;;;12.55;6.20;;;;;;;15.29;65.95;97687.25;125334;1100;103083;-77
2021/05/14 11:19:54;;;;;;;14.60;6.97;;;;;;;15.25;65.95;97694.00;125324;1100;103083;-76
2021/05/14 11:22:26;;;;;;;17.30;7.63;;;;;;;15.24;66.24;97689.65;125405;1100;103135;-71
2021/05/14 11:25:14;;;;;;;14.87;7.40;;;;;;;15.26;66.05;97691.13;125363;1107;103097;-76
2021/05/14 11:27:53;;;;;;;13.93;6.90;;;;;;;15.29;66.17;97698.81;125333;1107;103025;-76
2021/05/14 11:30:22;;;;;;;13.97;6.60;;;;;;;15.31;66.14;97703.98;125266;1107;103091;-76
2021/05/14 11:32:54;;;;;;;15.47;6.63;;;;;;;15.29;66.00;97701.49;125325;1107;103000;-76
2021/05/14 11:35:27;;;;;;;14.07;6.57;;;;;;;15.27;66.04;97700.02;125339;1100;103237;-78
2021/05/14 11:38:01;;;;;;;12.28;6.33;;;;;;;15.26;66.19;97709.05;125349;1100;103096;-76
2021/05/14 11:40:39;;;;;;;11.20;5.67;;;;;;;15.25;66.22;97712.75;125431;1107;103010;-75
2021/05/14 11:43:12;;;;;;;16.47;6.07;;;;;;;15.25;66.33;97710.89;125451;1107;103004;-76
2021/05/14 11:45:45;;;;;;;14.30;6.55;;;;;;;15.27;66.31;97721.44;125435;1107;104471;-74